Terminal Aerodrome Forecast
Issued by NWS

Home | Current Version | Previous Version | Text Only | Print | Product List | Glossary On
Versions: 1 2 3 4 5 6 7 8 9 10 11 12 13 14 15 16 17 18 19 20 21 22 23
000
FTUS41 KPBZ 270533
TAFFKL
TAF
KFKL 270533Z 2706/2806 17006KT P6SM VCSH OVC005
     FM271100 18005KT P6SM OVC010
     FM271400 21005KT P6SM OVC025
     FM271800 26007KT P6SM BKN040
      AMD LTD TO CLD VIS AND WIND=

USA.gov is the U.S. government's official web portal to all federal, state and local government web resources and services.